Archival Weather

Wadi Al Dawasir

Wadi Al Dawasir, Saudi Arabia (OEWD)

Report from: Sunday, October 1, 2023 10:00 AM +03
Current time: Friday, February 23, 2024 11:38 PM +03

Current weather – Weather history – Daily summaries
Weather forecast

Temperature35.0°C (95.0°F)
Heat index32.3°C (90.2°F)
Dew point-4.0°C (24.8°F)
Winds 6 kts (3.1 m/s, 6.9 mph) East-Northeast (70°)
Clouds Sky clear
Altimeter29.94 in.Hg (1014 mB)
Relative humidity8 %
Density altitude2,323 ft. (708 m)
Remarks Ceiling and visibility OK
Flight conditions Visual Meteorological Conditions
Raw dataOEWD 010700Z 07006KT CAVOK 35/M04 Q1014
An error has occurred. This application may no longer respond until reloaded. Reload 🗙